Time;durP1;ratioP1;P1;durP2;ratioP2;P2;SDS_P1;SDS_P2;PMS_P1;PMS_P2;Temp;Humidity;BMP_temperature;BMP_pressure;BME280_temperature;BME280_humidity;BME280_pressure;Samples;Min_cycle;Max_cycle;Signal;HPM_P1;HPM_P2
2021/08/27 00:01:13;;;;;;;4.15;1.60;;;;;;;;;;4997765;28;20107;-82
2021/08/27 00:03:38;;;;;;;3.38;1.33;;;;;;;;;;4982122;28;20083;-82
2021/08/27 00:06:04;;;;;;;5.93;1.90;;;;;;;;;;4982034;28;20091;-81
2021/08/27 00:08:29;;;;;;;3.47;1.48;;;;;;;;;;5010529;28;20030;-81
2021/08/27 00:10:55;;;;;;;4.20;1.52;;;;;;;;;;5011426;28;20443;-81
2021/08/27 00:13:20;;;;;;;5.28;1.70;;;;;;;;;;5011445;28;20033;-81
2021/08/27 00:15:46;;;;;;;4.15;1.40;;;;;;;;;;5002311;28;20478;-81
2021/08/27 00:18:11;;;;;;;3.88;1.35;;;;;;;;;;5014257;28;20025;-81
2021/08/27 00:20:38;;;;;;;4.53;2.00;;;;;;;;;;5013454;28;20029;-81
2021/08/27 00:23:04;;;;;;;4.10;1.65;;;;;;;;;;5014475;28;20135;-82
2021/08/27 00:25:30;;;;;;;5.13;1.80;;;;;;;;;;4997989;28;20531;-81
2021/08/27 00:27:55;;;;;;;4.10;1.30;;;;;;;;;;4988360;28;20116;-81
2021/08/27 00:30:21;;;;;;;4.70;1.42;;;;;;;;;;4989835;28;20191;-82
2021/08/27 00:32:46;;;;;;;4.85;1.33;;;;;;;;;;5030507;28;20025;-82
2021/08/27 00:35:12;;;;;;;3.40;1.30;;;;;;;;;;5021568;28;20037;-81
2021/08/27 00:37:38;;;;;;;3.42;1.50;;;;;;;;;;4994934;28;20506;-81
2021/08/27 00:40:04;;;;;;;4.03;1.58;;;;;;;;;;4997450;28;20083;-82
2021/08/27 00:42:29;;;;;;;4.35;2.00;;;;;;;;;;5001362;28;20033;-82
2021/08/27 00:44:55;;;;;;;6.18;2.03;;;;;;;;;;5008870;28;20057;-81
2021/08/27 00:47:20;;;;;;;4.40;1.17;;;;;;;;;;5029936;28;20399;-82
2021/08/27 00:49:46;;;;;;;5.78;1.60;;;;;;;;;;4977587;28;20366;-82
2021/08/27 00:52:11;;;;;;;2.70;1.08;;;;;;;;;;5021365;28;20041;-81
2021/08/27 00:54:38;;;;;;;2.80;1.20;;;;;;;;;;4994433;28;20056;-82
2021/08/27 00:57:07;;;;;;;3.83;1.33;;;;;;;;;;4993999;28;20507;-82
2021/08/27 00:59:35;;;;;;;3.85;1.75;;;;;;;;;;4977941;28;20121;-82
2021/08/27 01:02:00;;;;;;;3.35;1.40;;;;;;;;;;5005264;28;20026;-82
2021/08/27 01:04:26;;;;;;;2.53;1.13;;;;;;;;;;4998547;28;20528;-82
2021/08/27 01:06:57;;;;;;;5.40;1.58;;;;;;;;;;5023741;28;20491;-82
2021/08/27 01:09:40;;;;;;;3.43;1.17;;;;;;;;;;5017420;28;20029;-82
2021/08/27 01:12:14;;;;;;;4.63;1.40;;;;;;;;;;5003943;28;20033;-82
2021/08/27 01:14:41;;;;;;;4.18;1.33;;;;;;;;;;5013933;28;20392;-82
2021/08/27 01:17:11;;;;;;;5.13;1.83;;;;;;;;;;5000130;28;20034;-82
2021/08/27 01:19:46;;;;;;;2.92;0.93;;;;;;;;;;5010341;28;20022;-82
2021/08/27 01:22:26;;;;;;;3.03;1.13;;;;;;;;;;5024871;28;20049;-82
2021/08/27 01:24:52;;;;;;;3.05;1.05;;;;;;;;;;4982249;28;20040;-82
2021/08/27 01:27:18;;;;;;;2.30;0.98;;;;;;;;;;4980880;28;20053;-82
2021/08/27 01:30:05;;;;;;;2.95;1.10;;;;;;;;;;4997685;28;20017;-82
2021/08/27 01:32:46;;;;;;;4.30;1.33;;;;;;;;;;5029463;28;20037;-82
2021/08/27 01:35:12;;;;;;;3.45;1.10;;;;;;;;;;4993881;28;20141;-82
2021/08/27 01:37:37;;;;;;;3.78;0.90;;;;;;;;;;4994829;28;20547;-82
2021/08/27 01:40:03;;;;;;;3.35;1.00;;;;;;;;;;5010523;28;20496;-82
2021/08/27 01:42:29;;;;;;;2.70;0.82;;;;;;;;;;5005228;28;20038;-82
2021/08/27 01:44:55;;;;;;;3.47;1.38;;;;;;;;;;5021873;28;20503;-82
2021/08/27 01:47:26;;;;;;;4.88;1.65;;;;;;;;;;4996231;28;20087;-81
2021/08/27 01:49:52;;;;;;;3.80;1.20;;;;;;;;;;4997331;28;20499;-82
2021/08/27 01:52:18;;;;;;;3.72;1.13;;;;;;;;;;4976973;28;20041;-82
2021/08/27 01:54:44;;;;;;;2.30;1.02;;;;;;;;;;5010177;28;20427;-82
2021/08/27 01:57:09;;;;;;;5.10;1.55;;;;;;;;;;5004633;28;20030;-82
2021/08/27 01:59:38;;;;;;;4.20;1.02;;;;;;;;;;5005664;28;20021;-82
2021/08/27 02:02:04;;;;;;;2.78;0.95;;;;;;;;;;5013496;28;20050;-82
2021/08/27 02:04:30;;;;;;;3.63;1.23;;;;;;;;;;5032596;28;20060;-82
2021/08/27 02:06:55;;;;;;;2.58;0.90;;;;;;;;;;5011335;28;20048;-81
2021/08/27 02:09:21;;;;;;;2.88;1.20;;;;;;;;;;4994381;28;20091;-82
2021/08/27 02:11:47;;;;;;;4.18;1.02;;;;;;;;;;5013406;28;20034;-82
2021/08/27 02:14:13;;;;;;;2.60;1.20;;;;;;;;;;5013513;28;20030;-82
2021/08/27 02:16:39;;;;;;;2.92;0.93;;;;;;;;;;5022680;28;20044;-82
2021/08/27 02:19:04;;;;;;;2.75;1.10;;;;;;;;;;5016522;28;20387;-82
2021/08/27 02:21:32;;;;;;;4.00;1.45;;;;;;;;;;5008047;28;20037;-82
2021/08/27 02:23:58;;;;;;;5.20;1.38;;;;;;;;;;4996869;28;20030;-82
2021/08/27 02:26:23;;;;;;;3.35;0.98;;;;;;;;;;4996388;28;20115;-82
2021/08/27 02:28:49;;;;;;;3.08;0.82;;;;;;;;;;5003483;28;20392;-82
2021/08/27 02:31:14;;;;;;;3.22;0.90;;;;;;;;;;5015898;28;20030;-81
2021/08/27 02:33:42;;;;;;;3.88;0.93;;;;;;;;;;5000100;28;20033;-82
2021/08/27 02:36:08;;;;;;;2.15;0.70;;;;;;;;;;5015792;28;20061;-82
2021/08/27 02:38:34;;;;;;;2.83;0.70;;;;;;;;;;5016052;28;20411;-82
2021/08/27 02:40:59;;;;;;;4.13;0.90;;;;;;;;;;5000046;28;20029;-82
2021/08/27 02:43:25;;;;;;;2.85;0.77;;;;;;;;;;4984868;28;20034;-82
2021/08/27 02:45:50;;;;;;;3.95;0.88;;;;;;;;;;4989715;28;20052;-82
2021/08/27 02:48:16;;;;;;;3.05;1.33;;;;;;;;;;5006068;28;20029;-82
2021/08/27 02:50:44;;;;;;;2.22;0.77;;;;;;;;;;5003142;28;20041;-82
2021/08/27 02:53:19;;;;;;;2.22;0.73;;;;;;;;;;5013556;28;20040;-82
2021/08/27 02:55:47;;;;;;;3.13;1.20;;;;;;;;;;4995696;28;20056;-83
2021/08/27 02:58:20;;;;;;;1.88;0.73;;;;;;;;;;4983550;28;20491;-83
2021/08/27 03:01:11;;;;;;;1.95;0.88;;;;;;;;;;4999693;28;20032;-82
2021/08/27 03:03:44;;;;;;;1.70;0.80;;;;;;;;;;5034555;28;20037;-82
2021/08/27 03:06:15;;;;;;;2.85;0.85;;;;;;;;;;5035276;28;20036;-82
2021/08/27 03:08:43;;;;;;;2.25;0.82;;;;;;;;;;5018131;28;20029;-82
2021/08/27 03:11:21;;;;;;;2.28;0.73;;;;;;;;;;5019459;28;20483;-82
2021/08/27 03:13:54;;;;;;;2.50;0.65;;;;;;;;;;4997745;28;20034;-82
2021/08/27 03:16:19;;;;;;;1.88;0.60;;;;;;;;;;5027118;28;20049;-81
2021/08/27 03:18:52;;;;;;;3.42;0.70;;;;;;;;;;5015150;28;20039;-82
2021/08/27 03:21:28;;;;;;;3.33;0.68;;;;;;;;;;5031928;28;20443;-82
2021/08/27 03:23:54;;;;;;;1.83;0.70;;;;;;;;;;5048235;28;20026;-82
2021/08/27 03:26:24;;;;;;;2.78;0.50;;;;;;;;;;5014611;28;20041;-82
2021/08/27 03:29:05;;;;;;;2.53;0.60;;;;;;;;;;5001291;28;20049;-81
2021/08/27 03:31:31;;;;;;;4.80;1.85;;;;;;;;;;4984434;28;20392;-81
2021/08/27 03:33:58;;;;;;;2.50;0.60;;;;;;;;;;5014829;28;20025;-81
2021/08/27 03:36:27;;;;;;;2.35;0.60;;;;;;;;;;5015068;28;20072;-81
2021/08/27 03:38:54;;;;;;;1.98;0.70;;;;;;;;;;4998666;28;20033;-82
2021/08/27 03:41:20;;;;;;;3.28;0.52;;;;;;;;;;4982706;28;20041;-82
2021/08/27 03:43:45;;;;;;;2.55;0.80;;;;;;;;;;5011293;28;20080;-82
2021/08/27 03:46:12;;;;;;;2.53;0.60;;;;;;;;;;5018806;28;20471;-82
2021/08/27 03:48:38;;;;;;;2.55;1.13;;;;;;;;;;4998804;28;20398;-82
2021/08/27 03:51:03;;;;;;;3.53;0.82;;;;;;;;;;4978858;28;20124;-81
2021/08/27 03:53:30;;;;;;;1.58;0.60;;;;;;;;;;5047541;28;20033;-82
2021/08/27 03:55:56;;;;;;;1.67;0.68;;;;;;;;;;5031303;28;20514;-82
2021/08/27 03:58:23;;;;;;;3.08;0.70;;;;;;;;;;5030902;28;20041;-82
2021/08/27 04:00:49;;;;;;;4.18;0.57;;;;;;;;;;5006451;28;20030;-82
2021/08/27 04:03:14;;;;;;;1.65;0.63;;;;;;;;;;5010736;28;20034;-82
2021/08/27 04:05:59;;;;;;;2.85;0.95;;;;;;;;;;4996056;28;20041;-84
2021/08/27 04:08:24;;;;;;;3.17;0.70;;;;;;;;;;5002052;28;20119;-82
2021/08/27 04:10:50;;;;;;;2.35;0.50;;;;;;;;;;4993200;28;20025;-82
2021/08/27 04:13:15;;;;;;;6.47;0.70;;;;;;;;;;5014524;28;20029;-82
2021/08/27 04:15:41;;;;;;;3.63;0.88;;;;;;;;;;5014256;28;20320;-83
2021/08/27 04:18:06;;;;;;;4.25;1.40;;;;;;;;;;4981431;28;20029;-82
2021/08/27 04:20:32;;;;;;;4.65;0.60;;;;;;;;;;4981574;28;20033;-82
2021/08/27 04:22:57;;;;;;;2.63;0.70;;;;;;;;;;4982013;28;20399;-82
2021/08/27 04:25:23;;;;;;;2.58;0.63;;;;;;;;;;4982355;28;20056;-82
2021/08/27 04:27:48;;;;;;;4.57;0.50;;;;;;;;;;4988480;28;20034;-82
2021/08/27 04:30:14;;;;;;;2.55;0.77;;;;;;;;;;5030786;28;20034;-82
2021/08/27 04:32:39;;;;;;;3.20;0.70;;;;;;;;;;4981351;28;20025;-82
2021/08/27 04:35:05;;;;;;;1.88;0.70;;;;;;;;;;5014432;28;20033;-82
2021/08/27 04:37:31;;;;;;;1.75;0.35;;;;;;;;;;4981431;28;20029;-82
2021/08/27 04:39:56;;;;;;;2.53;0.50;;;;;;;;;;4978754;28;20068;-82
2021/08/27 04:42:22;;;;;;;1.85;0.38;;;;;;;;;;4997835;28;20380;-83
2021/08/27 04:44:47;;;;;;;2.97;0.70;;;;;;;;;;4997686;28;20031;-82
2021/08/27 04:47:12;;;;;;;1.88;0.52;;;;;;;;;;4997740;28;20482;-82
2021/08/27 04:49:38;;;;;;;2.15;0.68;;;;;;;;;;4997653;28;20025;-82
2021/08/27 04:52:04;;;;;;;2.28;0.50;;;;;;;;;;4981398;28;20083;-82
2021/08/27 04:54:29;;;;;;;2.40;0.60;;;;;;;;;;5013646;28;20171;-82
2021/08/27 04:56:55;;;;;;;2.83;0.80;;;;;;;;;;5013064;28;20034;-82
2021/08/27 04:59:20;;;;;;;3.85;0.70;;;;;;;;;;4997746;28;20092;-82
2021/08/27 05:01:46;;;;;;;2.38;0.60;;;;;;;;;;4996916;28;20128;-82
2021/08/27 05:04:11;;;;;;;2.58;0.57;;;;;;;;;;5013684;28;20033;-82
2021/08/27 05:06:37;;;;;;;3.55;0.73;;;;;;;;;;4992214;28;20068;-82
2021/08/27 05:09:02;;;;;;;3.08;0.50;;;;;;;;;;4981065;28;20048;-82
2021/08/27 05:11:28;;;;;;;2.13;0.60;;;;;;;;;;5023195;28;20065;-82
2021/08/27 05:13:53;;;;;;;2.03;0.47;;;;;;;;;;4997545;28;20030;-82
2021/08/27 05:16:19;;;;;;;2.80;0.57;;;;;;;;;;5029993;28;20096;-81
2021/08/27 05:18:44;;;;;;;1.95;0.43;;;;;;;;;;5012738;28;20075;-82
2021/08/27 05:21:14;;;;;;;3.10;0.65;;;;;;;;;;5030253;28;20107;-81
2021/08/27 05:23:40;;;;;;;2.08;0.60;;;;;;;;;;4997796;28;20044;-82
2021/08/27 05:26:05;;;;;;;2.45;0.50;;;;;;;;;;5002992;28;20109;-82
2021/08/27 05:28:31;;;;;;;2.22;0.47;;;;;;;;;;5008675;28;20034;-81
2021/08/27 05:30:56;;;;;;;1.85;0.60;;;;;;;;;;4994156;28;20033;-82
2021/08/27 05:33:22;;;;;;;3.35;0.55;;;;;;;;;;5014102;28;20038;-83
2021/08/27 05:35:47;;;;;;;3.35;0.50;;;;;;;;;;5022775;28;20080;-82
2021/08/27 05:38:12;;;;;;;2.67;0.60;;;;;;;;;;5000816;28;20034;-82
2021/08/27 05:40:38;;;;;;;4.68;1.38;;;;;;;;;;5001173;28;20059;-82
2021/08/27 05:43:04;;;;;;;3.17;0.73;;;;;;;;;;5017264;28;20041;-82
2021/08/27 05:45:29;;;;;;;2.15;0.90;;;;;;;;;;5006057;28;20437;-82
2021/08/27 05:47:55;;;;;;;2.45;0.30;;;;;;;;;;5012959;28;20035;-81
2021/08/27 05:50:20;;;;;;;3.72;0.60;;;;;;;;;;5000850;28;20044;-84
2021/08/27 05:52:46;;;;;;;3.33;0.82;;;;;;;;;;5017046;28;20072;-82
2021/08/27 05:55:12;;;;;;;1.88;0.75;;;;;;;;;;4996280;28;20084;-83
2021/08/27 05:57:37;;;;;;;4.32;0.60;;;;;;;;;;5011664;28;20096;-83
2021/08/27 06:00:07;;;;;;;3.15;0.80;;;;;;;;;;4995562;28;20484;-83
2021/08/27 06:02:32;;;;;;;1.73;0.57;;;;;;;;;;5023830;28;20064;-83
2021/08/27 06:04:59;;;;;;;1.33;0.40;;;;;;;;;;5000297;28;20044;-83
2021/08/27 06:07:26;;;;;;;2.55;0.75;;;;;;;;;;5015075;28;20045;-84
2021/08/27 06:09:51;;;;;;;1.83;0.57;;;;;;;;;;5020089;28;20029;-83
2021/08/27 06:12:17;;;;;;;3.55;0.50;;;;;;;;;;5020309;28;20417;-83
2021/08/27 06:14:42;;;;;;;4.55;0.98;;;;;;;;;;5003626;28;20120;-84
2021/08/27 06:17:08;;;;;;;2.42;0.77;;;;;;;;;;5019766;28;20120;-85
2021/08/27 06:19:33;;;;;;;3.83;0.90;;;;;;;;;;5002837;28;20458;-85
2021/08/27 06:21:59;;;;;;;4.07;0.70;;;;;;;;;;5017949;28;20056;-85
2021/08/27 06:24:24;;;;;;;3.42;0.70;;;;;;;;;;5001861;28;20079;-86
2021/08/27 06:26:50;;;;;;;6.30;1.13;;;;;;;;;;4986682;28;20037;-84
2021/08/27 06:29:15;;;;;;;4.68;0.70;;;;;;;;;;4980984;28;20079;-87
2021/08/27 06:31:41;;;;;;;3.85;0.90;;;;;;;;;;4980336;28;20041;-85
2021/08/27 06:34:06;;;;;;;9.77;0.77;;;;;;;;;;4983735;28;20036;-85
2021/08/27 06:36:32;;;;;;;2.65;0.70;;;;;;;;;;4984357;28;20491;-84
2021/08/27 06:38:57;;;;;;;7.80;1.10;;;;;;;;;;4984607;28;20029;-84
2021/08/27 06:41:23;;;;;;;5.85;1.15;;;;;;;;;;5016231;28;20043;-85
2021/08/27 06:43:48;;;;;;;6.78;1.00;;;;;;;;;;5006860;28;20018;-85
2021/08/27 06:46:17;;;;;;;7.75;2.08;;;;;;;;;;4996130;28;20038;-84
2021/08/27 06:48:43;;;;;;;5.28;1.10;;;;;;;;;;4994007;28;20064;-84
2021/08/27 06:51:09;;;;;;;4.53;1.00;;;;;;;;;;4999222;28;20033;-84
2021/08/27 06:53:35;;;;;;;4.00;0.80;;;;;;;;;;4983087;28;20095;-84
2021/08/27 06:56:00;;;;;;;4.80;1.08;;;;;;;;;;4998215;28;20434;-84
2021/08/27 06:58:26;;;;;;;3.88;0.93;;;;;;;;;;4996296;28;20041;-84
2021/08/27 07:00:51;;;;;;;3.47;0.70;;;;;;;;;;5012589;28;20133;-85
2021/08/27 07:03:17;;;;;;;3.50;1.10;;;;;;;;;;5012471;28;20033;-85
2021/08/27 07:05:42;;;;;;;6.70;2.33;;;;;;;;;;5031536;28;20059;-84
2021/08/27 07:08:08;;;;;;;5.85;0.90;;;;;;;;;;4982738;28;20025;-85
2021/08/27 07:10:34;;;;;;;5.80;1.50;;;;;;;;;;4983073;28;20500;-84
2021/08/27 07:13:00;;;;;;;4.60;1.15;;;;;;;;;;4982401;28;20492;-84
2021/08/27 07:15:25;;;;;;;5.13;1.08;;;;;;;;;;5015633;28;20352;-85
2021/08/27 07:17:51;;;;;;;4.50;1.40;;;;;;;;;;4995425;28;20033;-85
2021/08/27 07:20:17;;;;;;;7.60;1.15;;;;;;;;;;4982400;28;20025;-85
2021/08/27 07:22:42;;;;;;;6.47;1.55;;;;;;;;;;4982363;28;20095;-85
2021/08/27 07:25:08;;;;;;;5.45;1.40;;;;;;;;;;4979501;28;20480;-85
2021/08/27 07:27:34;;;;;;;3.45;0.90;;;;;;;;;;4998921;28;20040;-85
2021/08/27 07:29:59;;;;;;;4.97;1.23;;;;;;;;;;4998575;28;20068;-85
2021/08/27 07:32:25;;;;;;;4.35;1.40;;;;;;;;;;4996229;28;20044;-85
2021/08/27 07:34:51;;;;;;;5.20;1.10;;;;;;;;;;5025465;28;20029;-85
2021/08/27 07:37:18;;;;;;;6.85;1.75;;;;;;;;;;5014471;28;20040;-84
2021/08/27 07:39:44;;;;;;;3.58;1.08;;;;;;;;;;4995165;28;20502;-85
2021/08/27 07:42:10;;;;;;;5.07;1.10;;;;;;;;;;5028117;28;20093;-85
2021/08/27 07:44:36;;;;;;;4.57;1.67;;;;;;;;;;5047071;28;20436;-85
2021/08/27 07:47:02;;;;;;;3.25;0.82;;;;;;;;;;4979109;28;20045;-84
2021/08/27 07:49:28;;;;;;;3.42;1.45;;;;;;;;;;5030609;28;20033;-84
2021/08/27 07:51:53;;;;;;;3.03;0.90;;;;;;;;;;4996027;28;20029;-81
2021/08/27 07:54:19;;;;;;;4.65;1.05;;;;;;;;;;5014279;28;20116;-81
2021/08/27 07:56:45;;;;;;;4.72;1.00;;;;;;;;;;4997707;28;20057;-80
2021/08/27 07:59:10;;;;;;;4.13;1.15;;;;;;;;;;4995227;28;20479;-81
2021/08/27 08:01:36;;;;;;;3.00;0.75;;;;;;;;;;5012662;28;20022;-81
2021/08/27 08:04:02;;;;;;;6.22;1.52;;;;;;;;;;5030980;28;20025;-80
2021/08/27 08:06:28;;;;;;;5.82;1.42;;;;;;;;;;4982086;28;20041;-81
2021/08/27 08:08:53;;;;;;;5.97;1.10;;;;;;;;;;4998594;28;20044;-80
2021/08/27 08:11:19;;;;;;;4.13;1.02;;;;;;;;;;4981985;28;20052;-80
2021/08/27 08:13:44;;;;;;;5.65;1.17;;;;;;;;;;4998182;28;20095;-80
2021/08/27 08:16:11;;;;;;;6.15;1.17;;;;;;;;;;5014383;28;20108;-81
2021/08/27 08:18:39;;;;;;;3.33;1.13;;;;;;;;;;5018937;28;20231;-80
2021/08/27 08:21:05;;;;;;;4.88;1.08;;;;;;;;;;5014500;28;20472;-80
2021/08/27 08:23:31;;;;;;;6.35;1.60;;;;;;;;;;5014550;28;20029;-80
2021/08/27 08:25:56;;;;;;;4.35;0.90;;;;;;;;;;5029843;28;20034;-81
2021/08/27 08:28:21;;;;;;;4.22;1.40;;;;;;;;;;4978386;28;20044;-80
2021/08/27 08:30:51;;;;;;;4.03;1.30;;;;;;;;;;5010873;28;20052;-81
2021/08/27 08:33:16;;;;;;;6.13;1.20;;;;;;;;;;5013548;28;20029;-80
2021/08/27 08:35:42;;;;;;;4.03;1.08;;;;;;;;;;4980992;28;20035;-80
2021/08/27 08:38:07;;;;;;;3.03;0.80;;;;;;;;;;4991152;28;20060;-80
2021/08/27 08:40:40;;;;;;;4.10;1.05;;;;;;;;;;5013441;28;20423;-81
2021/08/27 08:43:07;;;;;;;3.30;1.02;;;;;;;;;;5012788;28;20048;-81
2021/08/27 08:45:34;;;;;;;4.90;1.00;;;;;;;;;;5007529;28;20396;-80
2021/08/27 08:47:59;;;;;;;10.40;1.63;;;;;;;;;;5013067;28;20557;-82
2021/08/27 08:50:24;;;;;;;5.13;1.13;;;;;;;;;;4997453;28;20029;-87
2021/08/27 08:52:50;;;;;;;8.23;1.20;;;;;;;;;;4978734;28;20030;-83
2021/08/27 08:55:15;;;;;;;5.68;1.38;;;;;;;;;;4981041;28;20048;-83
2021/08/27 08:57:41;;;;;;;4.45;1.17;;;;;;;;;;4981842;28;20026;-83
2021/08/27 09:00:07;;;;;;;7.60;1.02;;;;;;;;;;4977983;28;20022;-83
2021/08/27 09:02:32;;;;;;;4.97;1.33;;;;;;;;;;4980344;28;20026;-82
2021/08/27 09:04:58;;;;;;;4.78;1.30;;;;;;;;;;5013401;28;20109;-82
2021/08/27 09:07:23;;;;;;;5.38;1.10;;;;;;;;;;4998861;28;20120;-82
2021/08/27 09:09:49;;;;;;;6.90;1.33;;;;;;;;;;4983951;28;20029;-82
2021/08/27 09:12:20;;;;;;;5.65;1.67;;;;;;;;;;4998160;28;20038;-82
2021/08/27 09:15:02;;;;;;;4.05;1.00;;;;;;;;;;4982521;28;20481;-83
2021/08/27 09:17:40;;;;;;;6.45;1.20;;;;;;;;;;4991939;28;20025;-84
2021/08/27 09:20:28;;;;;;;4.30;1.02;;;;;;;;;;5017108;28;20026;-84
2021/08/27 09:22:58;;;;;;;4.32;1.10;;;;;;;;;;5016503;28;20037;-84
2021/08/27 09:25:27;;;;;;;4.75;1.20;;;;;;;;;;5000350;28;20064;-82
2021/08/27 09:28:12;;;;;;;3.40;0.90;;;;;;;;;;5016813;28;20448;-86
2021/08/27 09:30:50;;;;;;;5.10;0.80;;;;;;;;;;5016658;28;20021;-82
2021/08/27 09:33:21;;;;;;;3.72;0.90;;;;;;;;;;5017825;28;20021;-85
2021/08/27 09:36:03;;;;;;;4.07;0.77;;;;;;;;;;5011065;28;20032;-84
2021/08/27 09:38:29;;;;;;;;;;;;;;;;;;4998230;28;20038;-85
2021/08/27 09:41:23;;;;;;;;;;;;;;;;;;4997784;28;19963;-84
2021/08/27 09:43:52;;;;;;;;;;;;;;;;;;5017688;28;20007;-83
2021/08/27 09:46:27;;;;;;;;;;;;;;;;;;5032707;28;19909;-83
2021/08/27 09:48:52;;;;;;;;;;;;;;;;;;5034545;28;19948;-83
2021/08/27 09:51:24;;;;;;;;;;;;;;;;;;5000695;28;19956;-83
2021/08/27 09:53:50;;;;;;;;;;;;;;;;;;4999994;28;20367;-83
2021/08/27 09:56:15;;;;;;;;;;;;;;;;;;5006081;28;19999;-83
2021/08/27 09:58:59;;;;;;;;;;;;;;;;;;5053904;28;19909;-84
2021/08/27 10:01:25;;;;;;;;;;;;;;;;;;5020663;28;19963;-83
2021/08/27 10:04:03;;;;;;;;;;;;;;;;;;5036804;28;19956;-83
2021/08/27 10:06:32;;;;;;;;;;;;;;;;;;5020270;28;20011;-83
2021/08/27 10:08:57;;;;;;;;;;;;;;;;;;5037180;28;19908;-83
2021/08/27 10:11:23;;;;;;;;;;;;;;;;;;5020664;28;19916;-83
2021/08/27 10:13:48;;;;;;;;;;;;;;;;;;5020096;28;19920;-83
2021/08/27 10:16:14;;;;;;;;;;;;;;;;;;5020154;28;19909;-83
2021/08/27 10:18:39;;;;;;;;;;;;;;;;;;4992967;28;19917;-82
2021/08/27 10:21:05;;;;;;;;;;;;;;;;;;5013802;28;19964;-83
2021/08/27 10:23:30;;;;;;;;;;;;;;;;;;5013782;28;19956;-83
2021/08/27 10:25:56;;;;;;;;;;;;;;;;;;5013389;28;19910;-83
2021/08/27 10:28:24;;;;;;;;;;;;;;;;;;5013371;28;19909;-83
2021/08/27 10:30:50;;;;;;;;;;;;;;;;;;5013316;28;19914;-83
2021/08/27 10:33:16;;;;;;;;;;;;;;;;;;5030382;28;20007;-83
2021/08/27 10:35:45;;;;;;;;;;;;;;;;;;5013326;28;20387;-83
2021/08/27 10:38:31;;;;;;;;;;;;;;;;;;5014040;28;19917;-83
2021/08/27 10:41:15;;;;;;;;;;;;;;;;;;5013202;28;20002;-83
2021/08/27 10:43:59;;;;;;;;;;;;;;;;;;5013143;28;20376;-82
2021/08/27 10:46:43;;;;;;;;;;;;;;;;;;5012929;28;19913;-83
2021/08/27 10:49:09;;;;;;;;;;;;;;;;;;5030312;28;19952;-83
2021/08/27 10:51:35;;;;;;;;;;;;;;;;;;5016813;28;19937;-82
2021/08/27 10:54:00;;;;;;;;;;;;;;;;;;5016953;28;19909;-83
2021/08/27 10:56:50;;;;;;;;;;;;;;;;;;5015794;28;19915;-82
2021/08/27 10:59:16;;;;;;;;;;;;;;;;;;5027501;28;19955;-82
2021/08/27 11:01:42;;;;;;;;;;;;;;;;;;5032677;28;19909;-83
2021/08/27 11:04:10;;;;;;;;;;;;;;;;;;5032675;28;20271;-82
2021/08/27 11:06:44;;;;;;;;;;;;;;;;;;5015862;28;19917;-82
2021/08/27 11:09:14;;;;;;;;;;;;;;;;;;5032969;28;20333;-83
2021/08/27 11:11:39;;;;;;;;;;;;;;;;;;5031349;28;19924;-82
2021/08/27 11:14:15;;;;;;;;;;;;;;;;;;5032752;28;19909;-82
2021/08/27 11:16:40;;;;;;;;;;;;;;;;;;5030476;28;19912;-82
2021/08/27 11:19:42;;;;;;;;;;;;;;;;;;5029360;28;19936;-82
2021/08/27 11:22:10;;;;;;;;;;;;;;;;;;4994998;28;19916;-82
2021/08/27 11:24:39;;;;;;;;;;;;;;;;;;5025205;28;20000;-82
2021/08/27 11:27:05;;;;;;;;;;;;;;;;;;5028588;28;19913;-82
2021/08/27 11:29:33;;;;;;;;;;;;;;;;;;5028259;28;20388;-82
2021/08/27 11:32:25;;;;;;;;;;;;;;;;;;4995777;28;19909;-82
2021/08/27 11:35:00;;;;;;;;;;;;;;;;;;5012180;28;19956;-82
2021/08/27 11:37:35;;;;;;;;;;;;;;;;;;5029263;28;19917;-82
2021/08/27 11:40:01;;;;;;;;;;;;;;;;;;4995812;28;20004;-82
2021/08/27 11:42:26;;;;;;;;;;;;;;;;;;5028620;28;19952;-82
2021/08/27 11:45:05;;;;;;;;;;;;;;;;;;5028989;28;19916;-82
2021/08/27 11:47:41;;;;;;;;;;;;;;;;;;5032153;28;19909;-82
2021/08/27 11:50:10;;;;;;;;;;;;;;;;;;5015665;28;19909;-82
2021/08/27 11:52:35;;;;;;;;;;;;;;;;;;4999098;28;19932;-82
2021/08/27 11:55:08;;;;;;;;;;;;;;;;;;5015269;28;20351;-82
2021/08/27 11:57:33;;;;;;;;;;;;;;;;;;5031512;28;19913;-82
2021/08/27 12:00:05;;;;;;;;;;;;;;;;;;5031770;28;19994;-82
2021/08/27 12:02:30;;;;;;;;;;;;;;;;;;5014794;28;19940;-82
2021/08/27 12:04:57;;;;;;;;;;;;;;;;;;5031674;28;20355;-82
2021/08/27 12:07:27;;;;;;;;;;;;;;;;;;5031426;28;19924;-82
2021/08/27 12:10:01;;;;;;;;;;;;;;;;;;5031221;28;20387;-82
2021/08/27 12:12:30;;;;;;;;;;;;;;;;;;5027218;28;20050;-82
2021/08/27 12:14:55;;;;;;;;;;;;;;;;;;5011820;28;19909;-82
2021/08/27 12:17:21;;;;;;;;;;;;;;;;;;5011697;28;20333;-82
2021/08/27 12:19:47;;;;;;;;;;;;;;;;;;5011688;28;19913;-82
2021/08/27 12:22:13;;;;;;;;;;;;;;;;;;5011890;28;19913;-82
2021/08/27 12:24:39;;;;;;;;;;;;;;;;;;5011499;28;19988;-82
2021/08/27 12:27:04;;;;;;;;;;;;;;;;;;5011158;28;19963;-82
2021/08/27 12:29:30;;;;;;;;;;;;;;;;;;5011242;28;19917;-82
2021/08/27 12:31:55;;;;;;;;;;;;;;;;;;5011207;28;19916;-82
2021/08/27 12:34:20;;;;;;;;;;;;;;;;;;5011512;28;19910;-82
2021/08/27 12:36:46;;;;;;;;;;;;;;;;;;5011196;28;19917;-82
2021/08/27 12:39:14;;;;;;;;;;;;;;;;;;5011603;28;19996;-82
2021/08/27 12:41:39;;;;;;;;;;;;;;;;;;5011300;28;19917;-81
2021/08/27 12:44:11;;;;;;;;;;;;;;;;;;4995152;28;20306;-82
2021/08/27 12:46:37;;;;;;;;;;;;;;;;;;5027441;28;20352;-82
2021/08/27 12:49:12;;;;;;;;;;;;;;;;;;5028030;28;19921;-82
2021/08/27 12:51:41;;;;;;;;;;;;;;;;;;5014549;28;19913;-82
2021/08/27 12:54:06;;;;;;;;;;;;;;;;;;5014268;28;20275;-82
2021/08/27 12:56:32;;;;;;;;;;;;;;;;;;5013975;28;19912;-82
2021/08/27 12:58:57;;;;;;;;;;;;;;;;;;5031064;28;19909;-82
2021/08/27 13:01:27;;;;;;;;;;;;;;;;;;5030704;28;20039;-82
2021/08/27 13:03:56;;;;;;;;;;;;;;;;;;5030969;28;20130;-82
2021/08/27 13:06:33;;;;;;;;;;;;;;;;;;5029573;28;19917;-83
2021/08/27 13:09:03;;;;;;;;;;;;;;;;;;5030436;28;19952;-80
2021/08/27 13:11:58;;;;;;;;;;;;;;;;;;5030730;28;20282;-79
2021/08/27 13:14:25;;;;;;;;;;;;;;;;;;5013952;28;19913;-80
2021/08/27 13:16:54;;;;;;;;;;;;;;;;;;5030733;28;19913;-80
2021/08/27 13:19:19;;;;;;;;;;;;;;;;;;5030485;28;20435;-80
2021/08/27 13:21:45;;;;;;;;;;;;;;;;;;5030050;28;20003;-80
2021/08/27 13:24:11;;;;;;;;;;;;;;;;;;5031028;28;19916;-80
2021/08/27 13:26:36;;;;;;;;;;;;;;;;;;5030384;28;20366;-80
2021/08/27 13:29:02;;;;;;;;;;;;;;;;;;5047104;28;19909;-80
2021/08/27 13:31:27;;;;;;;;;;;;;;;;;;5030765;28;19916;-80
2021/08/27 13:33:53;;;;;;;;;;;;;;;;;;5030814;28;19958;-80
2021/08/27 13:36:18;;;;;;;;;;;;;;;;;;5029411;28;20007;-80
2021/08/27 13:38:44;;;;;;;;;;;;;;;;;;5014025;28;20359;-80
2021/08/27 13:41:09;;;;;;;;;;;;;;;;;;5014004;28;19959;-80
2021/08/27 13:43:35;;;;;;;;;;;;;;;;;;5014350;28;19913;-80
2021/08/27 13:46:00;;;;;;;;;;;;;;;;;;5013624;28;20316;-80
2021/08/27 13:48:25;;;;;;;;;;;;;;;;;;5003057;28;20422;-80
2021/08/27 13:50:50;;;;;;;;;;;;;;;;;;4993882;28;20003;-79
2021/08/27 13:53:16;;;;;;;;;;;;;;;;;;5013363;28;19916;-80
2021/08/27 13:55:41;;;;;;;;;;;;;;;;;;5000615;28;19944;-80
2021/08/27 13:58:07;;;;;;;;;;;;;;;;;;5033864;28;19913;-79
2021/08/27 14:00:32;;;;;;;;;;;;;;;;;;4996635;28;19917;-80
2021/08/27 14:02:58;;;;;;;;;;;;;;;;;;5014359;28;19910;-79
2021/08/27 14:05:23;;;;;;;;;;;;;;;;;;5013181;28;20007;-80
2021/08/27 14:07:48;;;;;;;;;;;;;;;;;;5013590;28;19957;-80
2021/08/27 14:10:14;;;;;;;;;;;;;;;;;;5014266;28;19913;-80
2021/08/27 14:12:40;;;;;;;;;;;;;;;;;;5017778;28;19921;-80
2021/08/27 14:15:06;;;;;;;;;;;;;;;;;;5033602;28;19913;-80
2021/08/27 14:17:32;;;;;;;;;;;;;;;;;;5000786;28;19917;-80
2021/08/27 14:19:57;;;;;;;;;;;;;;;;;;5000359;28;20019;-79
2021/08/27 14:22:22;;;;;;;;;;;;;;;;;;5016841;28;20379;-79
2021/08/27 14:24:48;;;;;;;;;;;;;;;;;;5016926;28;19934;-79
2021/08/27 14:27:13;;;;;;;;;;;;;;;;;;5013046;28;19913;-80
2021/08/27 14:29:39;;;;;;;;;;;;;;;;;;5013864;28;19917;-80
2021/08/27 14:32:04;;;;;;;;;;;;;;;;;;5013627;28;20446;-80
2021/08/27 14:34:29;;;;;;;;;;;;;;;;;;5029809;28;19914;-80
2021/08/27 14:36:55;;;;;;;;;;;;;;;;;;5030082;28;19921;-79
2021/08/27 14:39:20;;;;;;;;;;;;;;;;;;5013483;28;19909;-80
2021/08/27 14:41:45;;;;;;;;;;;;;;;;;;5013618;28;19910;-80
2021/08/27 14:44:11;;;;;;;;;;;;;;;;;;5013594;28;19913;-79
2021/08/27 14:46:36;;;;;;;;;;;;;;;;;;5012936;28;19917;-80
2021/08/27 14:49:02;;;;;;;;;;;;;;;;;;5016287;28;19916;-79
2021/08/27 14:51:27;;;;;;;;;;;;;;;;;;5033145;28;19916;-80
2021/08/27 14:53:53;;;;;;;;;;;;;;;;;;5016207;28;19917;-80
2021/08/27 14:56:18;;;;;;;;;;;;;;;;;;5039139;28;19912;-79
2021/08/27 14:58:44;;;;;;;;;;;;;;;;;;5020190;28;19915;-80
2021/08/27 15:01:09;;;;;;;;;;;;;;;;;;5019398;28;19920;-80
2021/08/27 15:03:35;;;;;;;;;;;;;;;;;;5019539;28;19908;-80
2021/08/27 15:06:00;;;;;;;;;;;;;;;;;;5019115;28;19916;-80
2021/08/27 15:08:25;;;;;;;;;;;;;;;;;;5019704;28;19952;-79
2021/08/27 15:10:51;;;;;;;;;;;;;;;;;;5019625;28;19932;-80
2021/08/27 15:13:17;;;;;;;;;;;;;;;;;;5019851;28;19908;-80
2021/08/27 15:15:42;;;;;;;;;;;;;;;;;;5035987;28;19995;-80
2021/08/27 15:18:07;;;;;;;;;;;;;;;;;;5019168;28;19983;-80
2021/08/27 15:20:33;;;;;;;;;;;;;;;;;;5019016;28;20007;-80
2021/08/27 15:22:59;;;;;;;;;;;;;;;;;;5019534;28;19966;-80
2021/08/27 15:25:27;;;;;;;;;;;;;;;;;;5019619;28;19916;-80
2021/08/27 15:27:53;;;;;;;;;;;;;;;;;;5019411;28;19908;-80